createdAt,value
2022-10-13T00:02:50.569Z,7.20
2022-10-13T00:07:54.084Z,5.10
2022-10-13T00:12:57.602Z,5.70
2022-10-13T00:18:00.915Z,5.50
2022-10-13T00:23:04.179Z,5.80
2022-10-13T00:28:07.543Z,6.70
2022-10-13T00:33:13.418Z,5.60
2022-10-13T00:38:20.550Z,6.00
2022-10-13T00:43:48.552Z,6.70
2022-10-13T00:48:53.144Z,5.60
2022-10-13T00:53:58.420Z,6.30
2022-10-13T00:59:04.885Z,6.30
2022-10-13T01:04:08.305Z,6.50
2022-10-13T01:09:11.564Z,7.40
2022-10-13T01:14:39.896Z,6.50
2022-10-13T01:20:23.567Z,7.20
2022-10-13T01:25:45.725Z,6.40
2022-10-13T01:31:20.363Z,5.30
2022-10-13T01:36:56.442Z,5.60
2022-10-13T01:42:16.232Z,6.00
2022-10-13T01:47:22.378Z,5.40
2022-10-13T01:52:36.069Z,5.10
2022-10-13T01:57:44.404Z,5.50
2022-10-13T02:03:02.515Z,5.90
2022-10-13T02:08:20.792Z,4.60
2022-10-13T02:13:28.749Z,3.90
2022-10-13T02:18:35.536Z,4.60
2022-10-13T02:23:39.079Z,4.00
2022-10-13T02:28:42.992Z,5.40
2022-10-13T02:33:46.293Z,5.10
2022-10-13T02:38:49.708Z,5.60
2022-10-13T02:43:52.999Z,5.00
2022-10-13T02:48:56.845Z,3.50
2022-10-13T02:54:00.105Z,4.60
2022-10-13T02:59:03.944Z,3.70
2022-10-13T03:04:09.246Z,5.30
2022-10-13T03:09:12.644Z,6.10
2022-10-13T03:14:15.959Z,5.20
2022-10-13T03:19:19.692Z,4.60
2022-10-13T03:24:22.991Z,5.10
2022-10-13T03:29:26.711Z,5.10
2022-10-13T03:34:30.227Z,4.80
2022-10-13T03:39:33.850Z,6.10
2022-10-13T03:44:37.160Z,8.30
2022-10-13T03:49:40.601Z,5.40
2022-10-13T03:54:43.881Z,6.10
2022-10-13T03:59:47.398Z,5.80
2022-10-13T04:04:51.018Z,5.30
2022-10-13T04:09:54.328Z,5.30
2022-10-13T04:14:57.640Z,5.60
2022-10-13T04:20:01.235Z,6.50
2022-10-13T04:25:06.912Z,4.70
2022-10-13T04:30:13.607Z,5.00
2022-10-13T04:35:17.233Z,6.00
2022-10-13T04:40:20.624Z,5.20
2022-10-13T04:45:24.004Z,3.60
2022-10-13T04:50:27.478Z,4.20
2022-10-13T04:55:30.790Z,4.70
2022-10-13T05:00:34.080Z,5.70
2022-10-13T05:05:37.520Z,6.40
2022-10-13T05:10:40.828Z,7.40
2022-10-13T05:15:44.139Z,6.30
2022-10-13T05:20:47.688Z,6.30
2022-10-13T05:25:50.975Z,6.30
2022-10-13T05:30:54.189Z,7.50
2022-10-13T05:36:07.116Z,6.60
2022-10-13T05:41:14.188Z,8.60
2022-10-13T05:46:17.423Z,8.90
2022-10-13T05:51:30.681Z,9.40
2022-10-13T05:56:42.207Z,7.30
2022-10-13T06:01:47.120Z,7.00
2022-10-13T06:06:51.042Z,7.70
2022-10-13T06:11:54.283Z,10.10
2022-10-13T06:17:00.268Z,11.20
2022-10-13T06:22:04.254Z,10.40
2022-10-13T06:27:07.675Z,9.70
2022-10-13T06:32:11.227Z,8.80
2022-10-13T06:37:14.615Z,10.50
2022-10-13T06:42:18.823Z,7.50
2022-10-13T06:47:22.757Z,8.40
2022-10-13T06:52:26.641Z,10.30
2022-10-13T06:57:29.995Z,9.30
2022-10-13T07:02:33.509Z,8.50
2022-10-13T07:07:36.823Z,8.70
2022-10-13T07:12:41.351Z,8.00
2022-10-13T07:17:44.599Z,7.50
2022-10-13T07:22:48.090Z,10.00
2022-10-13T07:27:51.522Z,7.30
2022-10-13T07:32:54.916Z,7.60
2022-10-13T07:37:58.704Z,7.50
2022-10-13T07:43:03.227Z,4.50
2022-10-13T07:48:06.737Z,3.10
2022-10-13T07:53:10.214Z,2.70
2022-10-13T07:58:13.526Z,6.80
2022-10-13T08:03:17.117Z,2.50
2022-10-13T08:08:21.886Z,2.30
2022-10-13T08:13:25.208Z,2.30
2022-10-13T08:18:29.812Z,2.70
2022-10-13T08:23:33.252Z,2.40
2022-10-13T08:28:36.694Z,2.50
2022-10-13T08:33:43.699Z,2.40
2022-10-13T08:38:47.078Z,2.30
2022-10-13T08:44:39.593Z,2.40
2022-10-13T08:49:20.531Z,2.20
2022-10-13T08:54:26.504Z,2.80
2022-10-13T08:59:29.816Z,2.10
2022-10-13T09:04:38.099Z,2.00
2022-10-13T09:09:41.557Z,2.10
2022-10-13T09:15:00.033Z,2.40
2022-10-13T09:20:22.650Z,2.10
2022-10-13T09:25:25.934Z,2.20
2022-10-13T09:30:47.645Z,1.60
2022-10-13T09:36:15.018Z,1.80
2022-10-13T09:41:22.831Z,2.30
2022-10-13T09:46:33.438Z,2.40
2022-10-13T09:51:45.234Z,1.80
2022-10-13T09:56:58.485Z,3.00
2022-10-13T10:02:18.063Z,3.00
2022-10-13T10:07:31.946Z,3.60
2022-10-13T10:12:40.194Z,2.60
2022-10-13T10:18:00.205Z,1.80
2022-10-13T10:23:19.179Z,2.00
2022-10-13T10:29:21.323Z,2.30
2022-10-13T10:34:30.680Z,2.50
2022-10-13T10:39:48.077Z,3.20
2022-10-13T10:44:55.368Z,2.00
2022-10-13T10:50:08.055Z,3.30
2022-10-13T10:55:25.294Z,2.10
2022-10-13T11:00:29.249Z,2.50
2022-10-13T11:06:17.178Z,2.60
2022-10-13T11:11:25.038Z,2.20
2022-10-13T11:16:42.232Z,2.50
2022-10-13T11:22:10.748Z,3.00
2022-10-13T11:27:17.269Z,3.90
2022-10-13T11:32:26.987Z,3.00
2022-10-13T11:38:07.307Z,2.40
2022-10-13T11:43:35.444Z,2.70
2022-10-13T11:49:16.734Z,3.00
2022-10-13T11:54:29.331Z,2.80
2022-10-13T11:59:37.874Z,3.20
2022-10-13T12:04:46.475Z,2.30
2022-10-13T12:09:54.075Z,2.90
2022-10-13T12:15:01.158Z,1.70
2022-10-13T12:20:28.750Z,2.20
2022-10-13T12:25:33.822Z,3.10
2022-10-13T12:30:37.322Z,1.60
2022-10-13T12:35:42.788Z,4.60
2022-10-13T12:40:50.102Z,2.90
2022-10-13T12:45:53.807Z,3.50
2022-10-13T12:51:22.318Z,2.80
2022-10-13T12:56:32.586Z,3.00
2022-10-13T13:01:36.206Z,7.80
2022-10-13T13:06:40.035Z,5.30
2022-10-13T13:11:43.333Z,4.00
2022-10-13T13:17:05.286Z,3.20
2022-10-13T13:22:09.727Z,4.30
2022-10-13T13:27:36.180Z,3.70
2022-10-13T13:32:39.730Z,4.30
2022-10-13T13:37:51.234Z,3.50
2022-10-13T13:42:56.014Z,3.80
2022-10-13T13:48:01.036Z,3.80
2022-10-13T13:53:06.259Z,4.70
2022-10-13T13:58:10.344Z,4.10
2022-10-13T14:03:18.502Z,2.70
2022-10-13T14:08:23.156Z,3.40
2022-10-13T14:13:26.551Z,3.60
2022-10-13T14:18:30.798Z,3.50
2022-10-13T14:23:34.124Z,5.10
2022-10-13T14:28:37.659Z,2.60
2022-10-13T14:33:41.544Z,4.20
2022-10-13T14:38:45.068Z,3.70
2022-10-13T14:43:48.391Z,4.30
2022-10-13T14:48:52.113Z,4.90
2022-10-13T14:53:55.726Z,4.40
2022-10-13T14:59:02.009Z,4.60
2022-10-13T15:04:05.724Z,5.30
2022-10-13T15:09:12.071Z,5.40
2022-10-13T15:14:15.416Z,6.10
2022-10-13T15:19:19.568Z,5.50
2022-10-13T15:24:23.068Z,5.30
2022-10-13T15:29:26.377Z,5.20
2022-10-13T15:34:29.793Z,5.40
2022-10-13T15:39:33.202Z,5.40
2022-10-13T15:45:08.761Z,4.90
2022-10-13T15:49:59.721Z,4.30
2022-10-13T15:55:03.110Z,4.10
2022-10-13T16:00:09.777Z,4.60
2022-10-13T16:05:13.870Z,4.20
2022-10-13T16:10:18.235Z,7.00
2022-10-13T16:15:21.473Z,6.50
2022-10-13T16:20:24.785Z,7.20
2022-10-13T16:25:28.915Z,7.20
2022-10-13T16:30:32.231Z,7.20
2022-10-13T16:35:35.581Z,6.90
2022-10-13T16:40:39.780Z,7.70
2022-10-13T16:45:59.055Z,7.70
2022-10-13T16:51:10.515Z,8.70
2022-10-13T16:56:14.665Z,8.90
2022-10-13T17:01:18.014Z,11.20
2022-10-13T17:06:25.917Z,10.90
2022-10-13T17:11:32.612Z,12.20
2022-10-13T17:16:36.185Z,11.10
2022-10-13T17:21:39.749Z,13.00
2022-10-13T17:26:43.167Z,18.30
2022-10-13T17:31:46.678Z,14.40
2022-10-13T17:36:50.002Z,12.40
2022-10-13T17:41:53.405Z,12.50
2022-10-13T17:46:56.818Z,12.60
2022-10-13T17:52:00.246Z,11.00
2022-10-13T17:57:04.064Z,11.40
2022-10-13T18:02:07.391Z,11.80
2022-10-13T18:07:10.725Z,9.80
2022-10-13T18:12:14.095Z,10.60
2022-10-13T18:17:17.663Z,12.30
2022-10-13T18:22:21.227Z,10.70
2022-10-13T18:27:24.653Z,12.40
2022-10-13T18:32:28.056Z,11.50
2022-10-13T18:37:31.394Z,11.10
2022-10-13T18:42:34.676Z,12.10
2022-10-13T18:47:38.174Z,11.50
2022-10-13T18:52:41.529Z,11.20
2022-10-13T18:57:45.020Z,9.80
2022-10-13T19:02:48.542Z,5.00
2022-10-13T19:07:51.916Z,9.40
2022-10-13T19:12:55.278Z,8.80
2022-10-13T19:17:58.872Z,7.30
2022-10-13T19:23:02.397Z,8.70
2022-10-13T19:28:05.922Z,7.20
2022-10-13T19:33:12.942Z,7.80
2022-10-13T19:38:16.966Z,7.10
2022-10-13T19:43:21.738Z,3.80
2022-10-13T19:48:26.021Z,5.60
2022-10-13T19:53:29.333Z,6.50
2022-10-13T19:58:34.419Z,7.40
2022-10-13T20:03:37.800Z,9.00
2022-10-13T20:08:41.726Z,6.90
2022-10-13T20:13:46.405Z,6.90
2022-10-13T20:19:01.098Z,5.90
2022-10-13T20:24:04.475Z,6.40
2022-10-13T20:29:08.567Z,7.10
2022-10-13T20:34:12.446Z,7.10
2022-10-13T20:39:15.824Z,6.80
2022-10-13T20:44:19.240Z,7.00
2022-10-13T20:49:22.762Z,6.30
2022-10-13T20:54:26.031Z,7.10
2022-10-13T20:59:29.393Z,6.80
2022-10-13T21:04:32.878Z,9.40
2022-10-13T21:09:37.002Z,6.20
2022-10-13T21:14:40.338Z,7.80
2022-10-13T21:19:43.953Z,7.20
2022-10-13T21:24:47.267Z,5.00
2022-10-13T21:29:50.580Z,6.50
2022-10-13T21:34:54.372Z,5.40
2022-10-13T21:39:57.751Z,8.70
2022-10-13T21:45:01.230Z,7.40
2022-10-13T21:50:06.255Z,5.90
2022-10-13T21:55:09.971Z,6.30
2022-10-13T22:00:14.639Z,5.70
2022-10-13T22:05:18.378Z,5.80
2022-10-13T22:10:21.709Z,7.00
2022-10-13T22:15:24.973Z,6.70
2022-10-13T22:20:28.815Z,7.00
2022-10-13T22:25:32.588Z,5.20
2022-10-13T22:30:39.426Z,6.50
2022-10-13T22:35:42.764Z,7.10
2022-10-13T22:40:46.162Z,6.60
2022-10-13T22:45:52.978Z,6.80
2022-10-13T22:50:56.881Z,6.90
2022-10-13T22:56:04.809Z,7.20
2022-10-13T23:01:12.912Z,7.10
2022-10-13T23:06:19.199Z,5.70
2022-10-13T23:11:23.531Z,6.70
2022-10-13T23:16:27.663Z,5.90
2022-10-13T23:21:31.794Z,5.90
2022-10-13T23:26:35.792Z,6.60
2022-10-13T23:31:39.814Z,4.90
2022-10-13T23:36:43.469Z,6.90
2022-10-13T23:41:47.049Z,5.20
2022-10-13T23:46:50.408Z,6.60
2022-10-13T23:51:53.685Z,7.40
2022-10-13T23:56:57.539Z,6.40
